首页
METAR-TAF:

METAR-TAF

机场 :

倫敦城市機場

伦敦, 英格兰

纬度: 51-30N, 经度: 000-03E, 海拔: 5米

当前天气观测

该预报发布于28分钟前的01:50 UTC
静风
温度 9°C
湿度 71%
气压 1028 hPa
能见度10公里或以上

METAR: EGLC 070150Z AUTO 00000KT 9999 NCD 09/04 Q1028

时间: 03:18 (02:18 UTC)


TAF: 丢失

超过4000个机场的气象观测和天气预报(METAR&TAF报告)。

可查询的气象台以黄色和红色小点在地图上表示。

将鼠标移到小点上方,可查看气象台名称。

然后点击查看天气观测和预报。

如需切换地图:点击带黑十字的绿色按钮放大地图;点击带横线的绿色按钮缩小地图;或者点击绿色箭头查看邻近地区的地图。


METAR-TAF: